Arnside, United Kingdom
Current Conditions -  °F | °C
As of 10:50 PM on Sunday 23 Nov 2014 (Local Time) from EGXE Reporting Station
Clear Clear  
Wind Chill: 30°   Ceiling: Unl
Heat Index: 30°   Visibility: 6mi
Dew Point: 30°   Wind: 3mph
Humidity: 100%   Direction: 200°SSW
Pressure: 30.09"   Gusts: NA
Location:  54.2°N, 2.83°W
Report Text: EGXE 232250Z AUTO 20003KT 9999 NCD M01/M01 Q1019
Loading
Personal Weather Stations






























Interactive Weather Map New forecast layout! Learn more

10-Day Weather Forecast

Advertisements
Track Severe Weather on mobile